Detall de PIREP

Printer-friendly versionPDF version

[2014/04/21 07:32:00]
Flight IATA:CT1004
Pilot Number:012
Company ICAO:CAT
Aircraft Type:B752/E
PAX:150
Aircraft Registration:PAX
Departing Airport: LFMP
Destination Airport: LRTR
Alternate Airport:LYBE
Online: VATSIM
Route:FJR/M080F180 Y25 MTG G701 MJ Q302 ABLAK P856 NASIK/M080F380 UP856 RAPED UM985 ABN UZ713 KALMO UM730 FRZ UM872 LIKNO UM730 SPL UL5 SOMUN UN978 OSNIP DCT MAVIT
Flight Level:F380
No Slew and time accel
No pause
Crash detect
Detect pilot in Cockpit between each 30 and 45 minutes
07:32 Zero fuel Weight: 166714 Lbs, Fuel Weight: 24265 Lbs
07:32 VATSIM:LFMP 210700Z VRB03KT 9999 FEW006 BKN011 12/10 Q1004 NOSIG
07:32 VATSIM:LRTR 210700Z 10010KT 070V130 CAVOK 15/11 Q1011
07:32 EASTER CHARTER
07:39 Parking Brakes off
07:43 Take-off
07:43 Take off Weight: 190066 Lbs
07:43 Wind: 359º @ 003 Knots Heading: 328º
07:43 POS N42º 44´ 55´´ E002º 51´ 58´´
07:43 Gear Up: 160 Knots
07:43 Flaps:2 at 160 Knots
07:45 Flaps:1 at 190 Knots
07:45 Flaps:0 at 191 Knots
07:58 Wind:247º@025 Knots Heading: 127º Ground Speed: 461 Knots Altitude 27043 ft
08:13 Wind:249º@029 Knots Heading: 062º Ground Speed: 497 Knots Altitude 30456 ft
08:19 TOC
08:19 Fuel Weight: 15992 Lb
08:28 Wind:239º@029 Knots Heading: 076º Ground Speed: 487 Knots Altitude 37765 ft
08:43 Wind:245º@031 Knots Heading: 106º Ground Speed: 483 Knots Altitude 37765 ft
08:58 Wind:245º@036 Knots Heading: 094º Ground Speed: 492 Knots Altitude 37818 ft
09:13 Wind:251º@037 Knots Heading: 057º Ground Speed: 496 Knots Altitude 37890 ft
09:27 TOD
09:27 Fuel Weight: 8370 Lb
09:28 Wind:250º@022 Knots Heading: 067º Ground Speed: 486 Knots Altitude 37329 ft
09:43 Wind:180º@014 Knots Heading: 286º Ground Speed: 265 Knots Altitude 8477 ft
09:43 Flaps:1 at 230 Knots
09:46 Flaps:2 at 210 Knots
09:46 Gear Down: 210 Knots
09:50 Flaps:3 at 171 Knots
09:50 Flaps:4 at 155 Knots
09:50 Flaps:5 at 147 Knots
09:50 Flaps:6 at 152 Knots
09:53 TouchDown:Rate -227 ft/min Speed: 126 Knots
09:53 VATSIM:LRTR 210930Z 16009KT 120V210 9999 SCT038 20/10 Q1010
09:53 Land
09:53 Wind:148º@009 Knots
09:53 Heading: 110º
09:53 Flight Duration: 02:10
09:53 Landing Weight: 173015 Lbs
09:53 POS N45º 48´ 37´´ E021º 20´ 04´´
09:57 Parking brakes on
09:57 Block to Block Duration: 02:18
09:57 Final Fuel: 5963 Lbls
09:57 Spent Fuel: 18302 Lbls
09:57 Flight Length: 947 NM
09:57 TOD Land Length: 132 NM

Exportar CSV

Powered by Drupal - Modified by Danger4k